Date,TemperatureHighF,TemperatureAvgF,TemperatureLowF,DewpointHighF,DewpointAvgF,DewpointLowF,HumidityHigh,HumidityAvg,HumidityLow,PressureMaxIn,PressureMinIn,WindSpeedMaxMPH,WindSpeedAvgMPH,GustSpeedMaxMPH,PrecipitationSumIn
2013-1-1,42.6,39.3,30.9,40.2,36.4,27.2,91,89,86,30.21,30.01,0,0,0,0.73
2013-1-2,35.8,30.2,25.0,27.1,23.2,21.3,86,76,60,30.28,30.18,0,0,0,0.02
2013-1-3,51.6,33.8,21.7,32.0,24.3,18.1,87,71,41,30.43,30.26,0,0,0,0.00
2013-1-4,56.8,35.5,22.3,40.2,25.8,18.7,87,70,42,30.51,30.40,0,0,0,0.00
2013-1-5,45.3,36.4,26.2,35.1,29.8,22.0,86,77,63,30.41,30.26,0,0,0,0.00
2013-1-6,56.5,40.5,29.1,42.3,32.5,23.7,91,75,47,30.39,30.24,0,0,0,0.00
2013-1-7,60.4,37.5,24.6,34.4,25.5,20.2,84,65,34,30.42,30.21,0,0,0,0.00
2013-1-8,62.2,44.0,26.8,42.7,33.4,21.7,84,68,46,30.28,30.16,0,0,0,0.00
2013-1-9,55.4,53.0,50.4,52.5,49.3,42.5,92,88,67,30.35,30.21,0,0,0,0.02
2013-1-10,66.2,60.5,54.1,62.5,58.0,51.8,94,91,86,30.27,29.90,0,0,0,0.00
2013-1-11,70.7,61.1,52.7,58.5,52.3,47.2,91,74,50,30.05,29.94,0,0,0,0.00
2013-1-12,70.9,66.9,62.2,65.7,63.0,58.7,93,87,81,29.97,29.75,0,0,0,0.82
2013-1-13,69.3,43.1,30.7,63.2,39.8,26.8,91,88,80,30.27,29.75,0,0,0,2.94
2013-1-14,30.7,28.0,26.2,26.8,23.4,21.1,86,83,75,30.41,30.25,0,0,0,0.02
2013-1-15,30.7,28.4,25.2,28.2,25.3,21.5,90,88,85,30.26,30.05,0,0,0,0.00
2013-1-16,33.3,31.1,29.1,29.8,28.2,26.3,90,89,87,30.19,30.05,0,0,0,0.02
2013-1-17,50.7,37.4,30.9,38.1,31.2,26.1,90,79,58,30.48,30.12,0,0,0,0.14
2013-1-18,59.4,38.2,24.4,38.3,27.6,21.3,88,69,37,30.57,30.35,0,0,0,0.02
2013-1-19,61.7,45.1,29.1,38.6,31.6,24.0,83,62,35,30.36,30.19,0,0,0,0.00
2013-1-20,66.4,46.6,31.3,39.3,31.9,26.0,84,60,33,30.27,30.15,0,0,0,0.00
2013-1-21,50.5,36.2,24.6,26.9,20.2,15.0,70,54,33,30.34,30.17,0,0,0,0.00
2013-1-22,47.1,33.4,22.6,22.9,18.4,15.7,77,56,36,30.44,30.31,0,0,0,0.00
2013-1-23,56.8,38.1,24.6,38.7,27.6,16.5,83,67,50,30.35,30.17,0,0,0,0.00
2013-1-24,45.0,39.9,36.0,38.2,25.3,19.4,85,57,45,30.43,30.20,0,0,0,0.00
2013-1-25,50.5,40.0,31.1,43.9,31.8,23.4,86,74,50,30.26,30.05,0,0,0,0.06
2013-1-26,61.5,43.4,29.1,42.6,31.9,26.2,89,67,39,30.34,30.24,0,0,0,0.02
2013-1-27,67.5,55.0,46.2,51.3,43.9,33.5,78,66,55,30.26,30.13,0,0,0,0.00
2013-1-28,74.1,62.5,56.3,61.1,55.1,50.9,88,77,62,30.18,30.06,0,0,0,0.04
2013-1-29,77.2,67.2,58.1,63.0,59.0,54.5,89,76,57,30.06,29.48,0,0,0,0.06
2013-1-30,68.5,48.0,31.8,63.2,40.4,23.8,91,75,60,30.05,29.53,0,0,0,1.12
2013-1-31,58.8,41.3,27.0,34.5,28.0,21.4,83,61,37,30.34,30.04,0,0,0,0.06
2013-2-1,44.8,31.0,22.5,21.5,13.2,9.9,66,49,31,30.54,30.31,0,0,0,0.00
2013-2-2,55.9,36.5,23.9,37.3,26.3,15.2,81,67,44,30.32,30.14,0,0,0,0.04
2013-2-3,59.7,44.4,29.8,36.1,29.7,24.0,85,59,34,30.21,30.11,0,0,0,0.02
2013-2-4,60.1,44.0,32.2,41.1,33.2,25.3,84,67,38,30.11,29.92,0,0,0,0.08
2013-2-5,68.7,50.4,37.4,52.0,42.0,32.9,89,75,45,30.07,29.93,0,0,0,0.04
2013-2-6,67.3,50.5,34.3,49.5,40.6,30.8,90,70,51,30.21,30.04,0,0,0,0.00
2013-2-7,70.5,58.2,49.8,54.2,47.4,38.5,87,68,54,30.05,29.88,0,0,0,0.04
2013-2-8,55.9,44.5,31.6,52.7,38.0,26.7,90,78,64,30.31,29.90,0,0,0,0.41
2013-2-9,55.4,42.5,27.7,38.3,32.9,24.3,88,70,49,30.32,30.05,0,0,0,0.02
2013-2-10,59.5,54.6,49.3,56.0,47.4,36.8,89,77,56,30.05,29.74,0,0,0,0.90
2013-2-11,64.2,50.3,43.7,52.7,35.9,29.2,89,60,32,30.22,29.98,0,0,0,0.04
2013-2-12,52.0,45.2,37.6,38.6,36.0,32.7,84,71,52,30.16,29.80,0,0,0,0.04
2013-2-13,44.8,40.5,32.7,39.3,35.9,29.3,88,84,76,30.04,29.78,0,0,0,0.08
2013-2-14,63.0,45.4,30.0,44.5,34.0,26.9,89,68,39,30.08,30.00,0,0,0,0.02
2013-2-15,60.1,44.6,34.3,39.9,31.1,24.8,85,62,35,30.21,30.06,0,0,0,0.00
2013-2-16,42.1,33.6,25.2,26.6,19.8,15.2,72,57,44,30.28,30.20,0,0,0,0.00
2013-2-17,60.4,42.3,26.8,31.7,25.7,18.9,74,54,34,30.27,30.08,0,0,0,0.00
2013-2-18,57.0,50.3,42.6,49.6,41.0,30.4,89,71,54,30.10,29.78,0,0,0,0.88
2013-2-19,53.4,41.4,28.2,40.3,27.5,21.7,81,60,34,30.28,29.97,0,0,0,0.69
2013-2-20,40.1,32.8,27.7,23.8,19.4,14.8,79,58,45,30.35,30.18,0,0,0,0.02
2013-2-21,45.0,38.4,32.2,41.8,31.0,22.9,89,75,54,30.19,29.75,0,0,0,0.67
2013-2-22,51.4,41.2,36.0,41.2,36.3,32.8,90,83,67,30.09,29.89,0,0,0,0.02
2013-2-23,57.4,40.1,29.3,33.2,28.6,25.0,84,66,39,30.07,29.96,0,0,0,0.00
2013-2-24,64.8,38.6,27.3,36.1,27.8,23.1,86,68,34,30.11,29.91,0,0,0,0.00
2013-2-25,63.0,51.4,41.2,51.7,39.1,27.0,89,64,48,29.91,29.34,0,0,0,0.65
2013-2-26,52.3,43.9,40.3,48.8,36.6,31.8,88,76,66,29.84,29.36,0,0,0,0.65
2013-2-27,47.5,42.0,38.5,35.1,32.1,28.8,73,68,60,29.98,29.84,0,0,0,0.00
2013-2-28,44.2,38.1,31.8,28.9,26.8,24.8,76,64,53,30.11,29.98,0,0,0,0.00
2013-3-1,37.9,35.0,31.8,29.5,26.6,24.1,77,71,67,30.17,30.09,0,0,0,0.00
2013-3-2,35.8,32.0,27.1,26.8,23.8,19.0,83,72,60,30.25,30.14,0,0,0,0.00
2013-3-3,51.4,36.1,19.8,30.7,22.3,15.4,84,60,35,30.24,30.07,0,0,0,0.00
2013-3-4,70.0,53.0,32.2,46.0,33.7,23.0,70,50,29,30.08,29.77,0,0,0,0.00
2013-3-5,62.1,49.7,37.2,54.7,38.1,22.9,86,65,42,30.19,29.78,0,0,0,0.14
2013-3-6,50.4,38.6,29.8,28.5,24.0,21.0,78,57,42,30.36,30.19,0,0,0,0.04
2013-3-7,60.1,41.8,29.1,34.1,28.5,23.4,82,62,35,30.40,30.28,0,0,0,0.00
2013-3-8,70.2,49.2,31.8,38.5,31.2,25.6,78,54,25,30.40,30.18,0,0,0,0.00
2013-3-9,70.9,59.2,46.2,40.0,34.7,30.1,58,41,29,30.18,29.94,0,0,0,0.00
2013-3-10,64.4,57.1,51.1,55.4,48.3,39.8,90,74,45,29.97,29.77,0,0,0,0.77
2013-3-11,51.8,41.7,31.6,46.3,33.1,27.4,88,72,53,30.05,29.84,0,0,0,0.26
2013-3-12,60.4,42.8,26.8,40.1,28.6,23.4,88,62,29,30.22,30.03,0,0,0,0.00
2013-3-13,55.0,43.8,30.7,32.1,26.4,21.9,74,51,36,30.41,30.20,0,0,0,0.00
2013-3-14,65.7,45.3,26.2,35.2,29.1,21.4,83,57,28,30.43,30.18,0,0,0,0.00
2013-3-15,78.8,59.9,38.5,53.0,43.2,30.7,79,56,40,30.19,29.90,0,0,0,0.00
2013-3-16,79.3,66.1,55.8,55.5,51.2,46.4,74,60,44,29.94,29.83,0,0,0,0.00
2013-3-17,75.0,62.2,49.5,57.5,51.1,44.1,85,68,52,29.91,29.70,0,0,0,0.08
2013-3-18,66.7,55.7,42.1,58.7,50.2,38.5,89,82,73,30.05,29.69,0,0,0,0.69
2013-3-19,64.2,48.2,32.7,42.5,31.7,23.2,90,59,27,30.20,30.03,0,0,0,0.10
2013-3-20,59.5,47.4,34.0,35.2,26.0,12.8,71,44,31,30.24,30.09,0,0,0,0.00
2013-3-21,52.5,40.8,28.8,28.4,18.4,12.7,76,42,26,30.12,29.94,0,0,0,0.04
2013-3-22,46.8,41.6,34.5,42.3,37.5,27.3,88,85,78,30.01,29.87,0,0,0,0.47
2013-3-23,54.7,48.8,45.0,48.7,44.7,41.8,90,86,79,29.93,29.67,0,0,0,0.51
2013-3-24,50.4,44.9,36.0,47.3,38.4,25.3,92,79,63,29.98,29.57,0,0,0,0.57
2013-3-25,43.9,36.8,32.4,26.3,23.5,21.0,67,59,49,30.26,29.97,0,0,0,0.02
2013-3-26,51.1,38.4,28.8,29.4,24.1,19.9,74,58,39,30.37,30.25,0,0,0,0.00
2013-3-27,61.0,42.5,24.1,35.5,27.3,19.7,84,59,33,30.42,30.29,0,0,0,0.00
2013-3-28,72.1,51.5,30.9,39.5,33.7,25.5,82,55,29,30.36,30.22,0,0,0,0.00
2013-3-29,66.4,53.3,43.2,50.5,43.1,33.9,87,70,37,30.27,30.16,0,0,0,0.22
2013-3-30,58.8,53.6,50.5,55.6,50.2,47.0,91,88,86,30.19,29.94,0,0,0,0.51
2013-3-31,64.0,56.8,46.8,59.0,52.5,43.7,93,86,75,29.97,29.86,0,0,0,0.08
2013-4-1,72.5,55.5,39.0,52.2,43.5,36.3,91,68,41,30.12,29.93,0,0,0,0.02
2013-4-2,52.9,46.8,39.4,40.0,32.4,28.4,82,58,42,30.25,30.10,0,0,0,0.02
2013-4-3,47.7,44.1,40.3,36.1,31.3,25.2,76,61,44,30.22,30.11,0,0,0,0.10
2013-4-4,47.7,44.2,40.6,43.2,39.4,31.5,90,84,55,30.13,29.97,0,0,0,0.29
2013-4-5,70.3,54.3,42.4,47.6,40.4,36.6,91,65,31,30.17,30.04,0,0,0,0.06
2013-4-6,76.8,58.5,38.8,46.3,40.1,34.7,86,56,27,30.11,29.93,0,0,0,0.00
2013-4-7,73.9,62.3,51.1,54.9,49.6,38.8,76,64,48,30.06,29.92,0,0,0,0.00
2013-4-8,79.3,68.0,57.7,59.5,55.4,47.7,78,65,47,30.00,29.87,0,0,0,0.00
2013-4-9,83.5,73.6,64.0,66.8,62.8,55.2,83,70,55,30.01,29.87,0,0,0,0.00
2013-4-10,84.9,76.3,69.6,67.6,64.1,62.0,81,67,51,29.97,29.69,0,0,0,0.00
2013-4-11,75.4,51.7,42.4,63.5,48.5,39.6,90,89,70,29.83,29.68,0,0,0,2.69
2013-4-12,67.8,52.6,37.9,48.8,41.8,35.5,91,70,42,30.01,29.82,0,0,0,0.02
2013-4-13,75.0,58.8,43.5,47.0,43.1,37.4,85,60,33,30.11,29.93,0,0,0,0.00
2013-4-14,70.3,60.5,51.4,56.3,50.2,44.2,81,69,58,29.93,29.76,0,0,0,0.00
2013-4-15,81.9,68.0,53.8,63.4,57.5,49.8,89,71,51,29.94,29.82,0,0,0,0.00
2013-4-16,84.4,75.2,67.1,71.2,66.7,60.7,87,76,60,30.06,29.92,0,0,0,0.00
2013-4-17,85.3,74.9,64.0,71.0,66.1,61.2,91,76,55,30.09,29.86,0,0,0,0.00
2013-4-18,80.4,69.2,45.1,66.3,60.2,41.8,89,74,55,29.88,29.61,0,0,0,1.55
2013-4-19,55.2,46.8,39.9,41.8,35.3,32.1,88,65,48,30.15,29.83,0,0,0,1.55
2013-4-20,71.2,52.5,35.2,46.0,37.5,31.1,87,62,33,30.27,30.15,0,0,0,0.00
2013-4-21,75.6,58.6,45.0,44.4,39.2,35.7,73,51,30,30.34,30.18,0,0,0,0.00
2013-4-22,78.4,60.0,43.2,52.5,44.9,37.4,81,60,37,30.21,30.02,0,0,0,0.00
2013-4-23,74.1,64.1,52.5,60.5,55.7,45.9,85,75,61,30.07,29.91,0,0,0,0.00
2013-4-24,67.5,49.7,39.9,60.5,43.6,35.6,89,80,62,30.30,29.88,0,0,0,0.92
2013-4-25,72.5,52.0,34.3,47.3,38.6,30.8,88,65,34,30.40,30.28,0,0,0,0.02
2013-4-26,77.2,54.8,43.3,51.6,44.9,38.5,84,71,36,30.40,30.22,0,0,0,0.08
2013-4-27,73.2,62.2,53.1,65.1,56.9,47.3,89,83,75,30.22,29.88,0,0,0,0.12
2013-4-28,66.6,60.6,51.3,57.5,53.6,46.8,88,78,66,29.99,29.94,0,0,0,0.02
2013-4-29,81.1,62.7,45.5,59.5,51.6,42.2,90,70,46,30.02,29.88,0,0,0,0.02
2013-4-30,83.8,59.8,50.0,62.3,52.3,46.1,87,78,46,29.97,29.91,0,0,0,0.00
2013-5-1,79.9,68.1,59.5,65.3,59.2,53.4,83,74,60,30.06,29.93,0,0,0,0.00
2013-5-2,65.5,63.0,60.6,60.5,58.8,56.1,91,86,81,30.11,30.00,0,0,0,0.55
2013-5-3,62.2,47.4,36.9,59.8,44.9,34.4,92,91,90,30.02,29.90,0,0,0,2.28
2013-5-4,58.8,44.9,34.0,44.8,39.2,31.5,92,81,56,29.99,29.88,0,0,0,0.12
2013-5-5,63.1,50.9,44.1,52.3,44.5,41.4,91,80,56,29.95,29.87,0,0,0,0.55
2013-5-6,64.9,57.3,51.4,57.5,51.9,46.5,89,83,70,29.97,29.87,0,0,0,0.06
2013-5-7,77.7,62.5,50.7,61.8,54.6,47.8,91,77,57,30.02,29.94,0,0,0,0.00
2013-5-8,85.1,66.6,50.5,63.6,55.4,47.0,89,70,45,30.09,30.01,0,0,0,0.00
2013-5-9,83.8,68.7,55.9,64.9,58.6,52.1,88,72,50,30.09,29.96,0,0,0,0.00
2013-5-10,74.7,67.0,62.4,68.1,62.7,59.2,91,86,74,29.98,29.87,0,0,0,0.53
2013-5-11,75.9,65.1,57.0,61.5,56.4,50.9,92,75,52,30.07,29.93,0,0,0,0.06
2013-5-12,72.7,59.4,46.2,53.3,40.1,34.9,86,51,29,30.23,30.06,0,0,0,0.00
2013-5-13,79.0,60.0,41.9,51.4,45.5,36.5,84,62,36,30.28,30.13,0,0,0,0.00
2013-5-14,86.2,70.2,52.5,60.7,54.3,47.8,85,60,37,30.15,30.03,0,0,0,0.00
2013-5-15,87.8,74.3,63.7,58.6,54.9,51.7,69,52,35,30.14,29.96,0,0,0,0.00
2013-5-16,75.0,68.6,62.8,63.4,60.0,56.4,86,75,61,30.01,29.90,0,0,0,0.02
2013-5-17,78.6,69.5,64.2,70.2,64.1,59.7,91,83,68,29.96,29.89,0,0,0,0.39
2013-5-18,82.2,73.3,64.0,74.2,68.5,61.2,92,85,73,30.00,29.91,0,0,0,0.02
2013-5-19,89.4,77.8,69.4,70.7,68.4,66.8,92,74,51,29.98,29.88,0,0,0,0.00
2013-5-20,89.1,79.2,72.9,73.0,69.5,67.2,86,73,57,29.96,29.83,0,0,0,0.00
2013-5-21,76.6,69.3,62.4,69.8,65.3,60.3,93,87,73,29.97,29.76,0,0,0,3.41
2013-5-22,79.2,68.6,61.5,68.0,63.2,59.5,93,84,64,29.95,29.78,0,0,0,2.98
2013-5-23,87.3,72.1,61.3,74.1,65.6,58.9,93,81,62,30.12,29.91,0,0,0,0.00
2013-5-24,79.7,66.4,55.6,67.1,58.7,51.4,86,77,61,30.29,30.09,0,0,0,0.00
2013-5-25,83.5,66.2,50.9,69.5,59.0,47.7,90,79,58,30.31,30.15,0,0,0,0.00
2013-5-26,88.2,70.2,55.8,72.1,61.6,53.2,92,76,52,30.20,30.08,11,0,0,0.00
2013-5-27,87.1,73.0,60.6,70.2,61.7,56.0,86,70,47,30.11,29.97,0,0,0,0.00
2013-5-28,89.4,77.3,69.6,70.0,63.2,58.6,81,63,41,30.05,29.96,0,0,0,0.00
2013-5-29,88.7,75.9,61.5,69.8,63.8,55.6,83,67,45,30.05,29.93,0,0,0,0.00
2013-5-30,84.9,75.7,70.7,71.7,67.7,64.7,87,77,62,30.03,29.91,0,0,0,0.00
2013-5-31,84.0,76.8,70.5,75.0,70.8,67.3,91,82,71,30.00,29.85,0,0,0,0.39
2013-6-1,83.7,72.4,66.2,73.1,67.8,61.0,91,86,66,30.00,29.80,0,0,0,0.35
2013-6-2,82.9,71.3,64.6,70.3,64.3,57.9,92,80,60,29.97,29.91,0,0,0,0.04
2013-6-3,85.3,70.3,59.9,66.6,60.2,56.2,89,72,49,30.03,29.92,0,0,0,0.00
2013-6-4,88.5,73.1,60.6,69.1,62.5,56.8,88,71,46,30.01,29.91,0,0,0,0.00
2013-6-5,91.9,76.1,65.5,75.9,67.5,60.8,86,76,55,29.95,29.80,0,0,0,0.00
2013-6-6,85.8,74.9,66.9,68.8,66.0,63.4,90,75,56,29.85,29.76,0,0,0,0.00
2013-6-7,86.5,72.7,62.2,65.9,60.3,53.5,81,66,47,29.90,29.78,0,0,0,0.00
2013-6-8,88.5,70.8,56.5,64.4,57.1,52.0,87,65,38,30.00,29.89,0,0,0,0.00
2013-6-9,87.4,73.9,63.7,71.3,65.3,56.5,90,76,56,29.98,29.81,0,0,0,0.61
2013-6-10,89.6,78.6,66.6,74.3,67.2,64.0,92,71,44,29.94,29.88,0,0,0,0.61
2013-6-11,97.3,81.7,69.4,76.2,70.0,64.8,87,70,47,30.04,29.93,0,0,0,0.00
2013-6-12,96.6,83.7,71.2,77.5,72.6,67.2,89,71,51,30.06,29.92,0,0,0,0.00
2013-6-13,95.7,83.6,73.6,76.1,70.5,63.1,81,66,47,29.96,29.87,0,0,0,0.00
2013-6-14,91.9,76.4,64.8,64.7,61.5,59.3,87,63,38,30.05,29.95,0,0,0,0.00
2013-6-15,91.9,75.8,61.7,67.6,63.1,57.5,87,67,43,30.07,29.96,0,0,0,0.00
2013-6-16,90.5,76.5,67.3,74.6,67.8,62.9,87,75,57,30.05,29.95,0,0,0,0.00
2013-6-17,80.4,73.5,69.4,74.1,69.2,64.8,91,87,79,29.99,29.84,0,0,0,0.33
2013-6-18,83.8,74.0,68.2,75.0,69.3,66.0,93,86,69,29.98,29.83,0,0,0,0.20
2013-6-19,93.9,75.8,64.9,75.7,67.6,62.6,93,78,49,30.04,29.95,0,0,0,0.00
2013-6-20,94.6,78.2,65.5,75.6,67.9,62.5,91,73,49,30.13,30.04,0,0,0,0.00
2013-6-21,92.3,78.7,68.0,74.7,69.0,64.6,89,74,52,30.17,30.07,0,0,0,0.00
2013-6-22,91.8,78.7,67.8,75.3,68.7,64.1,90,73,51,30.14,30.01,0,0,0,0.00
2013-6-23,92.1,78.3,67.6,73.3,68.1,63.8,88,73,51,30.11,30.01,0,0,0,0.00
2013-6-24,94.8,80.6,69.4,76.9,71.1,66.0,90,74,51,30.14,30.01,0,0,0,0.00
2013-6-25,92.3,81.4,72.1,75.1,70.8,68.3,89,72,51,30.09,29.94,0,0,0,0.00
2013-6-26,93.0,82.6,70.9,74.6,70.1,66.7,89,68,47,30.01,29.86,0,0,0,0.00
2013-6-27,98.2,83.5,71.8,79.4,73.6,67.5,91,73,54,29.94,29.82,0,0,0,0.39
2013-6-28,86.2,76.0,70.2,79.0,71.0,67.9,93,85,64,29.91,29.72,0,0,0,1.22
2013-6-29,91.8,77.3,66.0,69.6,64.5,59.7,91,68,42,29.78,29.69,0,0,0,0.14
2013-6-30,84.6,71.8,63.1,66.6,62.8,58.9,87,74,53,29.84,29.72,0,0,0,0.00
2013-7-1,80.1,71.5,65.5,68.4,62.9,58.3,88,75,63,29.94,29.82,0,0,0,0.00
2013-7-2,85.6,72.4,61.3,66.6,61.0,57.0,88,69,48,30.04,29.92,0,0,0,0.00
2013-7-3,86.5,72.1,61.3,68.2,62.0,57.8,88,72,50,30.10,30.01,0,0,0,0.00
2013-7-4,91.8,75.0,62.2,73.4,65.4,58.5,88,74,47,30.05,29.95,0,0,0,0.00
2013-7-5,90.9,74.5,64.9,75.1,67.3,61.7,90,79,57,30.07,29.96,0,0,0,0.16
2013-7-6,88.9,74.5,64.6,73.4,67.8,61.3,92,81,55,30.07,29.97,0,0,0,0.16
2013-7-7,87.3,76.9,68.7,75.7,70.2,65.7,91,80,66,30.10,30.03,0,0,0,0.00
2013-7-8,90.0,76.7,69.6,77.2,71.1,66.6,91,83,64,30.16,30.06,0,0,0,0.00
2013-7-9,95.4,81.9,71.2,76.5,71.7,68.2,91,73,49,30.14,30.01,0,0,0,0.00
2013-7-10,94.1,82.2,72.5,80.3,73.8,69.1,89,77,59,30.06,29.89,0,0,0,0.00
2013-7-11,97.5,82.8,72.9,78.7,71.1,63.6,87,69,53,29.96,29.89,0,0,0,0.00
2013-7-12,91.9,77.6,66.4,66.6,62.7,58.7,78,62,42,30.03,29.94,0,0,0,0.00
2013-7-13,91.6,75.1,62.2,65.6,61.0,56.8,83,64,40,30.03,29.94,0,0,0,0.00
2013-7-14,90.3,75.5,65.7,72.8,66.8,59.0,86,75,54,30.08,29.96,0,0,0,0.02
2013-7-15,86.5,77.2,71.2,75.7,71.0,67.3,90,82,64,30.19,30.07,0,0,0,0.43
2013-7-16,93.0,79.3,70.5,77.9,71.9,68.1,92,79,58,30.27,30.18,0,0,0,0.29
2013-7-17,97.7,82.1,70.3,77.8,71.9,67.3,91,74,47,30.30,30.15,0,0,0,0.00
2013-7-18,97.5,77.0,70.7,80.4,71.9,67.1,92,85,56,30.19,30.05,0,0,0,0.39
2013-7-19,88.7,77.6,69.4,77.5,71.0,67.0,93,81,62,30.09,29.95,0,0,0,0.08
2013-7-20,93.4,79.6,69.6,76.3,71.3,66.9,92,77,55,29.98,29.85,0,0,0,0.00
2013-7-21,93.0,81.0,71.4,76.6,71.5,68.0,90,74,53,29.98,29.88,0,0,0,0.00
2013-7-22,80.6,76.9,73.0,74.3,71.9,67.6,91,85,77,29.96,29.88,0,0,0,1.10
2013-7-23,84.6,76.3,68.9,76.8,72.7,66.8,93,89,77,30.01,29.84,0,0,0,0.86
2013-7-24,86.7,78.6,73.6,77.7,73.2,69.4,94,84,70,29.96,29.85,0,0,0,0.06
2013-7-25,88.9,74.8,65.5,69.4,64.4,60.0,88,72,47,30.07,29.96,0,0,0,0.00
2013-7-26,87.1,71.4,61.2,71.7,64.7,57.9,90,80,57,30.08,29.96,0,0,0,0.00
2013-7-27,85.6,73.8,66.9,75.4,67.8,64.2,92,82,62,30.00,29.90,0,0,0,0.16
2013-7-28,85.3,73.3,66.7,70.4,65.6,61.8,89,78,60,30.07,29.93,0,0,0,0.02
2013-7-29,90.7,75.2,65.1,71.9,66.4,61.2,87,75,52,30.15,30.06,0,0,0,0.00
2013-7-30,84.0,76.3,70.5,76.2,70.6,65.4,89,83,70,30.14,30.02,0,0,0,0.08
2013-7-31,89.6,77.8,72.7,78.6,72.7,69.5,92,85,67,30.07,29.92,0,0,0,0.08
2013-8-1,91.9,77.5,69.4,77.6,70.1,65.0,93,79,58,30.05,29.96,0,0,0,0.04
2013-8-2,91.8,76.4,64.6,74.2,67.9,61.7,91,77,52,30.03,29.95,0,0,0,0.00
2013-8-3,83.8,76.2,70.5,75.7,71.0,66.4,90,84,74,30.07,29.94,0,0,0,0.00
2013-8-4,93.6,78.4,67.8,77.9,71.0,65.1,92,79,56,30.11,30.03,0,0,0,0.00
2013-8-5,82.2,75.2,71.2,76.0,70.9,67.2,91,87,75,30.06,29.92,0,0,0,0.22
2013-8-6,87.1,79.0,72.7,78.3,74.0,70.1,93,85,74,29.96,29.87,0,0,0,0.06
2013-8-7,94.1,81.5,73.2,79.1,74.5,70.2,91,80,58,29.96,29.87,0,0,0,0.00
2013-8-8,94.6,83.3,74.5,79.2,75.3,71.9,92,78,55,29.96,29.86,0,0,0,0.00
2013-8-9,98.4,83.6,73.2,79.4,73.6,69.8,90,74,47,30.02,29.93,0,0,0,0.00
2013-8-10,85.6,79.1,73.0,75.9,72.5,70.0,90,81,67,30.13,30.01,0,0,0,0.00
2013-8-11,90.1,78.1,73.2,80.1,73.4,69.8,91,86,72,30.12,30.04,0,0,0,0.08
2013-8-12,93.4,79.8,71.2,79.2,72.5,67.2,92,80,59,30.06,29.93,0,0,0,0.12
2013-8-13,84.0,76.2,70.0,76.2,70.5,67.2,92,83,67,30.01,29.92,0,0,0,0.12
2013-8-14,85.3,72.5,65.1,68.0,61.0,55.5,84,69,43,30.07,29.97,0,0,0,0.00
2013-8-15,84.9,69.4,58.6,61.0,56.3,53.0,83,65,40,30.08,29.99,0,0,0,0.00
2013-8-16,84.4,70.9,60.6,70.5,62.7,55.8,86,76,56,30.05,29.98,0,0,0,0.00
2013-8-17,85.1,72.7,64.9,70.6,65.2,61.3,89,78,57,30.09,30.01,0,0,0,0.00
2013-8-18,85.8,73.1,64.8,73.2,66.2,61.5,90,80,59,30.13,30.03,0,0,0,0.00
2013-8-19,90.5,75.2,64.2,72.7,66.7,61.3,90,76,54,30.11,30.00,0,0,0,0.00
2013-8-20,92.3,76.9,66.7,74.7,68.7,63.2,89,77,53,30.10,30.01,0,0,0,0.00
2013-8-21,94.8,78.9,68.4,78.2,70.0,65.0,90,76,49,30.14,30.04,0,0,0,0.00
2013-8-22,93.9,79.0,70.3,78.5,71.1,66.8,90,78,57,30.14,30.01,0,0,0,0.00
2013-8-23,95.7,79.9,67.8,78.0,70.0,64.8,90,74,48,30.08,29.98,0,0,0,0.00
2013-8-24,96.1,81.0,70.7,79.1,71.4,66.6,89,74,51,30.14,30.03,0,0,0,0.00
2013-8-25,87.4,77.8,71.8,76.2,70.8,68.1,89,80,63,30.26,30.13,0,0,0,0.00
2013-8-26,91.8,77.7,67.8,73.9,68.1,64.2,90,74,51,30.26,30.13,0,0,0,0.00
2013-8-27,90.9,74.1,64.6,69.7,64.8,61.0,88,75,46,30.16,30.09,0,0,0,0.00
2013-8-28,85.8,77.4,70.3,69.3,65.6,63.7,81,68,55,30.05,30.01,0,0,0,0.00
2013-8-29,95.7,79.1,65.8,72.6,67.7,61.7,88,70,47,30.09,29.97,0,0,0,0.00
2013-8-30,97.5,81.5,69.4,74.5,69.7,65.3,88,70,45,30.02,29.90,0,0,0,0.00
2013-8-31,97.5,82.1,70.2,74.9,69.9,66.4,88,69,45,29.94,29.82,0,0,0,0.00
2013-9-1,97.3,80.6,71.4,75.4,70.7,67.3,87,73,47,29.91,29.81,0,0,0,0.00
2013-9-2,88.9,80.1,73.6,74.4,71.5,69.2,87,76,59,29.95,29.83,0,0,0,0.00
2013-9-3,93.4,78.3,66.0,69.9,64.9,57.7,89,66,40,30.03,29.91,0,0,0,0.00
2013-9-4,93.0,75.0,62.2,67.9,62.3,57.5,86,67,41,30.12,30.01,0,0,0,0.00
2013-9-5,94.8,76.9,63.7,70.3,63.3,58.4,84,65,41,30.15,30.07,0,0,0,0.00
2013-9-6,94.1,76.4,65.1,71.3,63.6,60.2,85,67,43,30.15,30.03,0,0,0,0.00
2013-9-7,94.8,77.5,63.7,72.1,64.4,59.4,86,67,43,30.09,29.96,0,0,0,0.00
2013-9-8,97.7,79.7,65.1,74.1,66.5,60.8,86,67,41,30.00,29.89,0,0,0,0.00
2013-9-9,91.9,78.3,70.5,75.8,70.3,65.6,86,77,52,30.04,29.94,0,0,0,0.02
2013-9-10,97.9,79.9,70.3,76.2,70.1,66.9,89,74,46,30.13,30.02,0,0,0,0.04
2013-9-11,93.9,80.4,70.7,76.8,69.8,66.8,89,72,48,30.16,30.05,0,0,0,0.04
2013-9-12,95.7,79.0,68.5,73.1,68.4,64.5,88,72,42,30.08,29.93,0,0,0,0.00
2013-9-13,85.5,74.2,64.6,68.8,60.1,52.9,87,63,41,30.02,29.93,0,0,0,0.00
2013-9-14,80.1,66.2,55.6,54.5,50.9,48.2,80,60,37,30.09,30.01,0,0,0,0.00
2013-9-15,87.1,67.4,50.4,60.5,52.3,45.3,84,62,35,30.11,30.04,0,0,0,0.00
2013-9-16,94.3,73.2,56.8,65.6,57.5,51.5,84,62,29,30.14,30.06,0,0,0,0.00
2013-9-17,93.0,77.5,65.8,68.3,63.7,61.0,87,65,39,30.15,30.02,0,0,0,0.00
2013-9-18,90.1,77.0,68.4,73.9,67.6,61.8,88,74,58,30.11,30.01,0,0,0,0.00
2013-9-19,89.4,77.3,66.6,73.3,66.8,62.8,89,72,51,30.10,29.95,0,0,0,0.00
2013-9-20,75.0,71.7,68.4,71.3,67.3,63.3,92,86,73,29.99,29.82,0,0,0,2.04
2013-9-21,78.6,68.1,57.0,66.3,58.9,51.3,93,75,50,29.92,29.80,0,0,0,0.84
2013-9-22,82.0,64.6,53.8,58.5,53.0,50.0,88,69,42,29.95,29.86,0,0,0,0.00
2013-9-23,84.4,67.6,54.1,64.9,56.6,49.4,85,70,47,29.96,29.86,0,0,0,0.00
2013-9-24,76.5,68.7,61.7,71.3,64.8,56.6,92,87,82,29.90,29.80,0,0,0,0.20
2013-9-25,82.9,73.2,65.7,73.6,66.4,61.3,93,81,58,29.85,29.77,0,0,0,0.02
2013-9-26,87.3,72.9,62.4,74.8,65.1,59.5,91,78,57,29.99,29.83,0,0,0,0.00
2013-9-27,86.5,71.7,61.7,70.9,62.9,58.5,90,75,53,30.09,29.98,0,0,0,0.00
2013-9-28,83.3,69.9,60.3,65.0,59.9,56.7,89,72,50,30.13,30.01,0,0,0,0.00
2013-9-29,68.5,65.6,63.1,64.0,60.9,57.9,91,85,79,30.06,29.95,0,0,0,0.08
2013-9-30,75.0,68.2,64.6,69.5,65.1,62.0,93,90,82,29.98,29.91,0,0,0,0.14
2013-10-1,82.2,72.0,65.3,72.2,66.9,62.6,92,85,68,30.06,29.96,0,0,0,0.02
2013-10-2,83.8,72.9,67.5,70.3,66.4,64.6,92,81,59,30.11,30.02,1,0,0,0.00
2013-10-3,84.4,73.8,63.5,73.3,67.1,60.8,91,80,64,30.06,29.95,1,0,0,0.00
2013-10-4,82.6,74.0,66.6,72.9,68.9,63.8,92,84,71,30.07,29.97,2,0,0,0.00
2013-10-5,86.2,77.0,70.0,74.0,70.1,66.9,92,80,61,30.03,29.87,1,0,0,0.04
2013-10-6,73.2,61.6,54.7,69.1,54.6,46.9,92,79,57,30.00,29.88,0,0,0,0.86
2013-10-7,70.9,56.7,46.0,54.0,47.7,42.1,88,73,53,30.11,29.97,0,0,0,0.02
2013-10-8,75.0,59.7,48.7,55.2,50.0,45.0,88,72,47,30.15,30.05,0,0,0,0.00
2013-10-9,75.0,63.5,54.0,65.4,57.3,49.2,88,80,70,30.14,30.05,1,0,0,0.00
2013-10-10,79.9,65.8,57.2,68.9,58.6,54.2,91,79,56,30.15,30.01,1,0,0,0.00
2013-10-11,82.2,66.1,54.7,68.9,58.1,51.5,90,77,54,30.06,29.96,0,0,0,0.00
2013-10-12,75.0,63.9,56.3,68.7,60.2,52.8,92,88,79,30.13,29.99,0,0,0,0.18
2013-10-13,80.8,67.9,61.2,70.5,61.9,54.8,93,82,67,30.26,30.12,0,0,0,0.02
2013-10-14,83.5,67.8,56.8,66.6,59.0,51.4,86,74,54,30.22,30.05,0,0,0,0.02
2013-10-15,72.1,67.8,65.3,64.0,62.8,61.3,92,84,75,30.07,29.95,0,0,0,0.26
2013-10-16,66.0,60.4,56.3,63.6,57.9,54.0,93,91,89,30.02,29.94,0,0,0,0.98
2013-10-17,67.6,57.8,48.4,61.3,52.2,44.7,91,82,64,30.03,29.96,0,0,0,0.02
2013-10-18,73.0,55.7,43.3,58.7,48.1,40.3,90,77,53,30.08,29.95,0,0,0,0.00
2013-10-19,56.3,51.6,40.3,51.6,46.1,36.1,90,82,66,30.08,29.93,0,0,0,0.02
2013-10-20,66.4,49.4,36.3,50.9,40.8,32.9,89,74,50,30.12,30.00,0,0,0,0.02
2013-10-21,73.2,55.1,40.1,54.5,45.6,35.9,88,72,46,30.08,29.97,0,0,0,0.00
2013-10-22,67.8,56.8,49.3,54.2,47.1,42.0,86,72,47,30.07,29.91,0,0,0,0.02
2013-10-23,61.0,50.2,41.5,45.0,40.2,36.1,83,70,48,30.17,29.96,0,0,0,0.00
2013-10-24,70.5,50.8,40.8,52.2,40.8,34.7,86,70,47,30.37,30.11,0,0,0,0.00
2013-10-25,57.6,43.4,34.3,36.1,31.1,27.8,80,64,41,30.52,30.33,0,0,0,0.00
2013-10-26,63.7,48.4,33.3,47.8,37.9,27.6,83,69,44,30.34,30.10,2,0,0,0.00
2013-10-27,67.8,57.7,50.7,59.6,52.2,45.3,89,82,71,30.11,30.02,0,0,0,0.00
2013-10-28,70.0,60.1,54.5,62.6,55.3,51.6,91,84,67,30.22,30.07,0,0,0,0.00
2013-10-29,73.2,62.0,52.0,66.4,57.9,48.8,92,87,78,30.24,30.11,0,0,0,0.00
2013-10-30,75.0,66.6,58.8,67.8,61.5,55.9,91,84,73,30.19,29.97,3,0,0,0.00
2013-10-31,69.6,66.4,60.6,66.5,63.0,52.3,93,89,72,30.00,29.59,7,0,0,2.08
2013-11-1,73.6,58.6,47.1,58.7,49.5,44.1,90,74,47,29.90,29.75,0,0,0,0.02
2013-11-2,64.8,52.1,41.9,49.1,42.8,36.0,86,72,51,30.21,29.88,0,0,0,0.00
2013-11-3,66.9,47.2,35.8,50.7,37.9,31.9,87,72,47,30.31,30.15,0,0,0,0.00
2013-11-4,65.5,52.3,40.6,48.4,43.3,35.5,85,73,51,30.29,30.19,0,0,0,0.00
2013-11-5,73.0,60.2,51.4,54.3,49.4,45.5,82,68,51,30.29,30.14,0,0,0,0.00
2013-11-6,60.4,56.7,45.1,57.2,50.4,40.9,90,80,67,30.25,30.04,0,0,0,0.31
2013-11-7,61.3,45.9,36.1,41.4,35.7,30.9,85,69,45,30.41,30.26,0,0,0,0.02
2013-11-8,68.4,46.0,31.6,52.1,36.2,27.7,86,71,46,30.39,30.21,0,0,0,0.00
2013-11-9,60.3,48.7,40.5,45.7,40.6,35.7,85,75,50,30.30,30.19,0,0,0,0.00
2013-11-10,74.5,53.4,42.6,56.3,43.5,37.1,88,71,46,30.35,30.26,0,0,0,0.00
2013-11-11,73.2,53.1,38.5,49.7,41.6,34.0,85,68,38,30.31,30.16,0,0,0,0.00
2013-11-12,53.4,40.7,30.7,48.1,30.7,21.0,85,68,51,30.66,30.22,0,0,0,0.00
2013-11-13,54.5,36.1,26.6,33.3,22.6,19.4,75,60,38,30.70,30.45,0,0,0,0.00
2013-11-14,60.4,39.0,23.0,35.5,23.9,17.5,80,58,30,30.45,30.15,0,0,0,0.00
2013-11-15,57.9,47.7,34.3,50.0,41.3,25.2,89,79,69,30.17,30.01,0,0,0,0.02
2013-11-16,68.4,60.1,51.6,63.2,56.6,48.4,91,88,83,30.05,29.88,0,0,0,0.02
2013-11-17,75.6,68.8,60.4,69.4,63.3,42.6,92,83,50,29.99,29.73,0,0,0,0.67
2013-11-18,69.6,54.5,42.1,43.6,37.1,29.8,77,54,37,30.24,30.00,0,0,0,0.02
2013-11-19,53.4,45.2,36.9,32.5,28.7,26.7,70,53,39,30.31,30.16,0,0,0,0.00
2013-11-20,64.2,47.8,32.4,42.6,34.6,25.8,80,62,41,30.18,30.06,0,0,0,0.00
2013-11-21,67.8,57.5,46.6,55.8,49.9,37.9,90,76,62,30.21,30.10,0,0,0,0.39
2013-11-22,58.8,52.7,42.6,56.5,50.0,39.2,92,90,87,30.39,30.16,0,0,0,0.59
2013-11-23,46.6,40.4,30.0,39.3,31.8,18.2,88,72,50,30.55,30.36,0,0,0,0.02
2013-11-24,44.4,31.3,23.0,24.7,17.3,14.4,70,57,42,30.64,30.42,0,0,0,0.02
2013-11-25,35.6,33.8,31.3,32.1,25.3,17.3,88,72,56,30.43,30.12,0,0,0,0.20
2013-11-26,39.7,36.2,34.0,36.3,32.4,25.5,90,86,71,30.14,29.94,0,0,0,0.08
2013-11-27,40.8,29.6,19.9,25.1,17.9,13.5,76,62,46,30.40,30.13,0,0,0,0.02
2013-11-28,47.5,31.0,17.8,30.2,19.8,12.6,81,65,41,30.48,30.38,0,0,0,0.00
2013-11-29,62.2,38.8,24.1,40.9,27.1,19.1,82,65,39,30.56,30.43,0,0,0,0.00
2013-11-30,60.1,41.3,25.7,39.3,28.4,20.7,82,63,36,30.44,30.22,0,0,0,0.00
2013-12-1,59.9,48.2,34.9,44.4,37.4,27.7,77,67,55,30.22,29.96,0,0,0,0.00
2013-12-2,60.1,52.9,45.3,52.7,47.2,40.1,88,81,71,29.88,29.72,0,0,0,0.00
2013-12-3,58.3,53.0,45.5,55.4,50.3,42.2,92,90,88,29.76,29.67,0,0,0,0.00
2013-12-4,69.4,62.0,57.9,62.6,59.2,55.6,93,91,79,29.76,29.69,0,0,0,0.00
2013-12-5,34.5,34.3,34.3,31.5,31.4,31.2,89,89,88,30.14,30.09,0,0,0,0.49
2013-12-6,34.0,32.0,25.5,31.0,29.2,22.7,90,89,89,30.42,30.05,0,0,0,1.16
2013-12-7,27.1,24.8,22.5,23.5,21.6,19.4,89,88,86,30.54,30.43,0,0,0,0.06
2013-12-8,34.3,32.4,29.3,31.9,29.9,26.5,91,91,89,30.29,30.07,0,0,0,0.02
2013-12-9,31.3,31.0,30.9,29.0,28.7,28.6,91,91,91,30.21,30.18,0,0,0,0.00
2013-12-10,46.0,30.9,23.9,33.6,24.7,20.0,87,78,58,30.44,30.28,0,0,0,0.00
2013-12-11,53.4,33.2,20.5,39.6,25.4,17.1,88,74,51,30.58,30.40,0,0,0,0.00
2013-12-12,52.5,32.8,20.8,27.3,19.9,14.9,79,62,34,30.62,30.39,0,0,0,0.00
2013-12-13,50.5,35.2,22.5,99.9,26.1,17.8,86,70,43,30.38,29.91,0,0,0,0.53
2013-12-14,44.4,40.1,35.2,41.7,36.2,29.7,90,86,80,30.15,29.80,0,0,0,1.06
2013-12-15,44.4,34.0,28.2,33.3,27.5,23.4,86,77,63,30.29,30.14,0,0,0,0.00
2013-12-16,60.6,43.1,27.1,40.8,33.3,23.8,89,70,48,30.23,30.13,0,0,0,0.00
2013-12-17,68.9,48.0,31.6,44.5,35.1,26.5,81,63,40,30.30,30.16,0,0,0,0.00
2013-12-18,65.1,44.4,28.2,42.3,32.3,24.3,87,66,37,30.36,30.13,0,0,0,0.00
2013-12-19,60.1,52.3,40.5,52.2,43.6,32.8,77,72,65,30.16,29.95,0,0,0,0.00
2013-12-20,67.8,62.9,58.8,62.3,57.6,51.6,90,83,75,29.99,29.82,0,0,0,0.12
2013-12-21,74.5,67.1,54.3,65.6,61.3,51.7,91,82,70,29.82,29.48,0,0,0,1.22
2013-12-22,55.0,49.1,36.7,52.2,45.5,31.1,92,88,80,30.25,29.72,0,0,0,0.80
2013-12-23,43.3,33.9,25.5,30.8,26.1,20.8,82,73,58,30.51,30.24,0,0,0,0.00
2013-12-24,45.1,30.4,23.5,28.0,20.1,16.4,86,67,41,30.60,30.42,0,0,0,0.00
2013-12-25,55.4,35.3,19.6,33.8,23.5,14.8,83,65,38,30.43,30.30,0,0,0,0.00
2013-12-26,56.8,37.2,27.0,37.1,25.9,20.4,85,66,39,30.44,30.34,0,0,0,0.00
2013-12-27,62.6,39.1,23.9,40.3,26.3,19.1,84,63,33,30.47,30.36,0,0,0,0.00
2013-12-28,46.0,38.0,29.5,37.9,32.0,23.4,87,79,71,30.36,29.98,0,0,0,0.04
2013-12-29,64.0,45.7,35.8,49.1,38.4,28.4,90,77,56,30.20,29.96,0,0,0,0.08
2013-12-30,35.8,31.4,29.8,28.6,24.8,22.7,79,77,74,30.37,30.19,0,0,0,0.00
2013-12-31,55.9,34.9,21.0,38.7,25.0,16.9,85,69,43,30.47,30.32,0,0,0,0.00
2014-1-1,59.9,41.2,23.0,41.7,30.8,18.6,85,68,44,30.31,29.95,0,0,0,0.00
2014-1-2,49.6,35.3,22.8,45.9,27.1,12.7,88,72,57,30.45,29.89,0,0,0,0.20